Aérodrome :
LOGIN :

S'inscrire | Disclaimer

   EN    FR    IT 

 










Légende :    VFR   VFR Marginal   IFR   IFR Intensif   IFR Très Intensif
Visi : 
Plafond : 
>= 8 km
>= 3000ft
5 à 8 km
1000 à 3000 ft
1500m à 5 km
500 à 1000 ft
800 à 1500m
200 à 500 ft
< 800m
< 200 ft
Symboles :   Orages  Brouillard  Fortes neiges  Fortes précipitations  Vent > 20 kt
SIGMETs :   Divers  Orages  Givrage  Turbulence  Onde Orograph.  Cendres Volcan.






- Altitude de l'aérodrome : 1416 ft
- Code IATA : ZRH


LSZH - Zurich

DERNIER METAR :
  • 040550Z VRB01KT 9999 -SHRA FEW015 SCT075 18/17 Q1022 RESHRA NOSIG

METARs EXPIRÉS :
  • 040520Z 21003KT 150V260 9999 -SHRA FEW015 SCT075 18/17 Q1021 TEMPO SHRA
  • 040450Z 27006KT 9999 -SHRA FEW015 SCT075 18/17 Q1022 TEMPO SHRA
  • 040350Z 12010KT 8000 SHRA FEW010 FEW050TCU SCT065 18/17 Q1020 TEMPO NSW
  • 040320Z AUTO 25004KT 190V300 9999 4500S RA FEW007 SCT065 19/17 Q1022 TEMPO NSW

TAF TAF LSZH
Valide du 04 à 06h jusqu'au 05 à 12h UTC


040525Z 0406/0512 27005KT 9999 FEW015 SCT075 TX24/0413Z TN18/0406Z TN15/0504Z
TEMPO 0406/0407 SHRA SCT050TCU
TEMPO 0411/0422 29010KT
TEMPO 0414/0502 SHRA SCT050TCU
PROB40
TEMPO 0415/0419 24012G25KT TSRA SCT050CB
ATIS : +41 43 816 2295 (DEP) +41 43 816 2294 (ARR)



MET'MAP, la Météo Aéronautique d'un coup d'oeil ! - Copyright ORBIFLY Décembre 2007 - Disclaimer

ORBIFLY MET'MAP TEAM :

Programmation & Développement : Alexandra Zaïnal
Sur une idée originale de : Baudouin d'Aumeries
Soutien technique & logistique : Manuel Goepfert
Assistance : Marc-Olivier Méhu




SOURCES & CREDITS :

   NOAA